createdAt,value
2023-04-21T00:01:40.924Z,14.50
2023-04-21T00:04:09.821Z,14.50
2023-04-21T00:06:41.510Z,14.50
2023-04-21T00:09:10.975Z,14.50
2023-04-21T00:11:38.898Z,14.40
2023-04-21T00:14:06.876Z,14.40
2023-04-21T00:16:34.791Z,14.40
2023-04-21T00:19:06.733Z,14.40
2023-04-21T00:21:34.716Z,14.40
2023-04-21T00:24:04.343Z,14.40
2023-04-21T00:26:32.228Z,14.40
2023-04-21T00:29:00.443Z,14.30
2023-04-21T00:31:28.407Z,14.40
2023-04-21T00:33:56.459Z,14.30
2023-04-21T00:36:28.058Z,14.30
2023-04-21T00:38:55.996Z,14.30
2023-04-21T00:41:25.288Z,14.30
2023-04-21T00:44:02.265Z,14.20
2023-04-21T00:46:32.869Z,14.30
2023-04-21T00:49:01.388Z,14.20
2023-04-21T00:51:31.631Z,14.20
2023-04-21T00:54:03.044Z,14.20
2023-04-21T00:56:33.748Z,14.20
2023-04-21T00:59:03.374Z,14.20
2023-04-21T01:01:34.174Z,14.20
2023-04-21T01:04:04.122Z,14.20
2023-04-21T01:06:33.997Z,14.10
2023-04-21T01:09:02.221Z,14.20
2023-04-21T01:11:30.098Z,14.20
2023-04-21T01:13:59.362Z,14.10
2023-04-21T01:16:27.609Z,14.10
2023-04-21T01:18:56.179Z,14.10
2023-04-21T01:21:24.328Z,14.10
2023-04-21T01:23:53.582Z,14.10
2023-04-21T01:26:22.878Z,14.10
2023-04-21T01:28:51.321Z,14.10
2023-04-21T01:31:21.016Z,14.10
2023-04-21T01:33:48.944Z,14.10
2023-04-21T01:36:17.530Z,14.10
2023-04-21T01:38:45.736Z,14.10
2023-04-21T01:41:15.120Z,14.10
2023-04-21T01:43:43.061Z,14.10
2023-04-21T01:46:11.206Z,14.00
2023-04-21T01:48:39.205Z,14.10
2023-04-21T01:51:07.568Z,14.00
2023-04-21T01:53:35.453Z,14.00
2023-04-21T01:56:03.407Z,14.00
2023-04-21T01:58:33.607Z,14.00
2023-04-21T02:01:01.589Z,14.00
2023-04-21T02:03:29.729Z,14.00
2023-04-21T02:05:57.776Z,14.00
2023-04-21T02:08:25.636Z,14.00
2023-04-21T02:10:53.483Z,13.90
2023-04-21T02:13:21.357Z,13.90
2023-04-21T02:15:55.037Z,13.90
2023-04-21T02:18:30.590Z,13.90
2023-04-21T02:20:58.445Z,13.90
2023-04-21T02:23:27.836Z,13.90
2023-04-21T02:25:55.934Z,13.80
2023-04-21T02:28:23.766Z,13.90
2023-04-21T02:30:52.963Z,13.80
2023-04-21T02:33:20.962Z,13.80
2023-04-21T02:35:49.808Z,13.80
2023-04-21T02:38:18.438Z,13.80
2023-04-21T02:40:46.286Z,13.80
2023-04-21T02:43:15.416Z,13.80
2023-04-21T02:45:43.525Z,13.80
2023-04-21T02:48:12.898Z,13.80
2023-04-21T02:50:41.030Z,13.80
2023-04-21T02:53:08.902Z,13.80
2023-04-21T02:55:36.804Z,13.80
2023-04-21T02:58:04.675Z,13.80
2023-04-21T03:00:32.527Z,13.80
2023-04-21T03:03:00.438Z,13.80
2023-04-21T03:05:29.856Z,13.70
2023-04-21T03:07:57.786Z,13.70
2023-04-21T03:10:26.084Z,13.70
2023-04-21T03:12:56.808Z,13.70
2023-04-21T03:15:25.365Z,13.70
2023-04-21T03:17:53.243Z,13.70
2023-04-21T03:20:22.523Z,13.70
2023-04-21T03:22:54.309Z,13.60
2023-04-21T03:25:22.588Z,13.60
2023-04-21T03:27:50.783Z,13.70
2023-04-21T03:30:19.111Z,13.60
2023-04-21T03:32:47.008Z,13.60
2023-04-21T03:35:15.174Z,13.60
2023-04-21T03:37:43.152Z,13.60
2023-04-21T03:40:12.669Z,13.60
2023-04-21T03:42:40.752Z,13.60
2023-04-21T03:45:10.708Z,13.60
2023-04-21T03:47:38.874Z,13.60
2023-04-21T03:50:08.378Z,13.60
2023-04-21T03:52:36.245Z,13.60
2023-04-21T03:55:05.098Z,13.60
2023-04-21T03:57:34.256Z,13.60
2023-04-21T04:00:02.126Z,13.60
2023-04-21T04:02:40.880Z,13.60
2023-04-21T04:05:09.628Z,13.60
2023-04-21T04:07:37.749Z,13.60
2023-04-21T04:10:06.033Z,13.60
2023-04-21T04:12:35.422Z,13.60
2023-04-21T04:15:03.519Z,13.60
2023-04-21T04:17:31.361Z,13.60
2023-04-21T04:19:59.255Z,13.50
2023-04-21T04:22:27.217Z,13.50
2023-04-21T04:24:55.662Z,13.50
2023-04-21T04:27:23.682Z,13.50
2023-04-21T04:29:53.103Z,13.50
2023-04-21T04:32:21.724Z,13.50
2023-04-21T04:34:49.739Z,13.50
2023-04-21T04:37:17.551Z,13.50
2023-04-21T04:39:45.396Z,13.50
2023-04-21T04:42:13.446Z,13.50
2023-04-21T04:44:41.660Z,13.50
2023-04-21T04:47:10.791Z,13.50
2023-04-21T04:49:38.788Z,13.50
2023-04-21T04:52:07.046Z,13.60
2023-04-21T04:54:34.944Z,13.60
2023-04-21T04:57:03.154Z,13.60
2023-04-21T04:59:31.546Z,13.60
2023-04-21T05:01:59.447Z,13.60
2023-04-21T05:04:29.050Z,13.60
2023-04-21T05:06:57.201Z,13.60
2023-04-21T05:09:25.866Z,13.70
2023-04-21T05:11:53.764Z,13.70
2023-04-21T05:14:21.764Z,13.70
2023-04-21T05:16:49.777Z,13.70
2023-04-21T05:19:18.917Z,13.80
2023-04-21T05:21:48.161Z,13.80
2023-04-21T05:24:16.044Z,13.80
2023-04-21T05:26:43.902Z,13.80
2023-04-21T05:29:11.753Z,13.80
2023-04-21T05:31:39.919Z,13.90
2023-04-21T05:34:07.831Z,13.90
2023-04-21T05:36:35.663Z,13.90
2023-04-21T05:39:04.943Z,13.90
2023-04-21T05:41:32.801Z,14.00
2023-04-21T05:44:00.679Z,14.00
2023-04-21T05:46:30.192Z,14.10
2023-04-21T05:48:58.242Z,14.10
2023-04-21T05:51:27.108Z,14.10
2023-04-21T05:53:55.110Z,14.20
2023-04-21T05:56:24.324Z,14.20
2023-04-21T05:58:52.177Z,14.30
2023-04-21T06:01:20.073Z,14.30
2023-04-21T06:03:50.284Z,14.30
2023-04-21T06:06:18.800Z,14.40
2023-04-21T06:08:46.691Z,14.40
2023-04-21T06:11:14.577Z,14.50
2023-04-21T06:13:43.813Z,14.50
2023-04-21T06:16:11.729Z,14.60
2023-04-21T06:18:39.637Z,14.60
2023-04-21T06:21:07.525Z,14.70
2023-04-21T06:23:35.424Z,14.80
2023-04-21T06:26:05.122Z,14.80
2023-04-21T06:28:34.078Z,14.90
2023-04-21T06:31:08.469Z,14.90
2023-04-21T06:33:36.906Z,15.00
2023-04-21T06:36:05.632Z,15.00
2023-04-21T06:38:33.648Z,15.10
2023-04-21T06:41:02.394Z,15.20
2023-04-21T06:43:30.454Z,15.20
2023-04-21T06:45:59.248Z,15.30
2023-04-21T06:48:29.917Z,15.40
2023-04-21T06:50:57.878Z,15.40
2023-04-21T06:53:25.705Z,15.50
2023-04-21T06:55:54.203Z,15.60
2023-04-21T06:58:22.076Z,15.70
2023-04-21T07:00:50.116Z,15.90
2023-04-21T07:03:18.148Z,16.00
2023-04-21T07:05:47.678Z,16.20
2023-04-21T07:08:15.577Z,16.40
2023-04-21T07:10:43.421Z,16.60
2023-04-21T07:13:12.083Z,16.90
2023-04-21T07:15:40.153Z,17.10
2023-04-21T07:18:08.214Z,17.40
2023-04-21T07:20:36.150Z,17.60
2023-04-21T07:23:05.489Z,17.80
2023-04-21T07:25:33.497Z,18.10
2023-04-21T07:28:02.788Z,18.30
2023-04-21T07:30:30.817Z,18.60
2023-04-21T07:32:59.235Z,18.80
2023-04-21T07:35:27.342Z,19.00
2023-04-21T07:37:55.258Z,19.20
2023-04-21T07:40:24.435Z,19.40
2023-04-21T07:42:52.349Z,19.60
2023-04-21T07:45:20.360Z,19.80
2023-04-21T07:47:48.264Z,20.10
2023-04-21T07:50:16.229Z,20.30
2023-04-21T07:52:44.073Z,20.50
2023-04-21T07:55:12.175Z,20.70
2023-04-21T07:57:41.399Z,20.90
2023-04-21T08:00:11.197Z,21.10
2023-04-21T08:02:42.307Z,21.30
2023-04-21T08:05:10.740Z,21.50
2023-04-21T08:07:39.452Z,21.80
2023-04-21T08:10:09.812Z,21.90
2023-04-21T08:12:37.885Z,22.20
2023-04-21T08:15:08.860Z,22.40
2023-04-21T08:17:36.811Z,22.60
2023-04-21T08:20:06.417Z,22.70
2023-04-21T08:22:35.762Z,22.90
2023-04-21T08:25:04.488Z,23.00
2023-04-21T08:27:32.449Z,23.10
2023-04-21T08:30:01.094Z,23.20
2023-04-21T08:32:30.379Z,23.30
2023-04-21T08:34:58.549Z,23.50
2023-04-21T08:37:26.473Z,23.60
2023-04-21T08:39:54.544Z,23.60
2023-04-21T08:42:22.478Z,23.70
2023-04-21T08:44:50.590Z,23.80
2023-04-21T08:47:20.368Z,23.80
2023-04-21T08:49:54.149Z,23.90
2023-04-21T08:52:22.044Z,23.90
2023-04-21T08:54:52.933Z,23.90
2023-04-21T08:57:20.928Z,23.90
2023-04-21T08:59:48.895Z,23.90
2023-04-21T09:02:19.516Z,23.90
2023-04-21T09:04:52.261Z,23.90
2023-04-21T09:07:34.141Z,23.80
2023-04-21T09:10:03.171Z,23.70
2023-04-21T09:12:31.683Z,23.70
2023-04-21T09:15:00.896Z,23.50
2023-04-21T09:17:33.740Z,23.40
2023-04-21T09:20:16.350Z,23.20
2023-04-21T09:22:45.066Z,23.20
2023-04-21T09:25:17.787Z,23.00
2023-04-21T09:27:46.622Z,22.90
2023-04-21T09:30:19.191Z,22.80
2023-04-21T09:32:47.262Z,22.70
2023-04-21T09:35:16.630Z,22.60
2023-04-21T09:37:45.525Z,22.50
2023-04-21T09:40:15.991Z,22.40
2023-04-21T09:42:44.898Z,22.30
2023-04-21T09:47:51.256Z,22.10
2023-04-21T09:50:54.435Z,22.10
2023-04-21T09:53:16.479Z,22.00
2023-04-21T09:55:48.936Z,21.90
2023-04-21T09:58:24.544Z,21.80
2023-04-21T10:00:55.652Z,21.80
2023-04-21T10:03:28.588Z,21.70
2023-04-21T10:05:58.062Z,21.70
2023-04-21T10:08:26.014Z,21.70
2023-04-21T10:10:54.459Z,21.60
2023-04-21T10:13:23.681Z,21.60
2023-04-21T10:16:03.768Z,21.50
2023-04-21T10:18:32.177Z,21.50
2023-04-21T10:21:06.142Z,21.50
2023-04-21T10:23:39.275Z,21.40
2023-04-21T10:26:11.973Z,21.40
2023-04-21T10:28:49.032Z,21.40
2023-04-21T10:31:52.156Z,21.30
2023-04-21T10:34:30.601Z,21.30
2023-04-21T10:37:19.639Z,21.30
2023-04-21T10:39:55.488Z,21.30
2023-04-21T10:42:30.646Z,21.30
2023-04-21T10:45:26.342Z,21.20
2023-04-21T10:47:54.752Z,21.30
2023-04-21T10:50:25.790Z,21.30
2023-04-21T10:53:11.403Z,21.20
2023-04-21T10:55:42.161Z,21.30
2023-04-21T10:58:10.652Z,21.30
2023-04-21T11:00:39.627Z,21.30
2023-04-21T11:03:09.052Z,21.30
2023-04-21T11:05:40.402Z,21.30
2023-04-21T11:08:13.890Z,21.30
2023-04-21T11:10:52.866Z,21.20
2023-04-21T11:13:26.485Z,21.20
2023-04-21T11:16:07.928Z,21.20
2023-04-21T11:18:42.308Z,21.20
2023-04-21T11:21:12.930Z,21.30
2023-04-21T11:23:48.730Z,21.20
2023-04-21T11:26:17.168Z,21.30
2023-04-21T11:28:49.506Z,21.20
2023-04-21T11:31:17.947Z,21.20
2023-04-21T11:33:45.916Z,21.30
2023-04-21T11:36:14.218Z,21.30
2023-04-21T11:38:43.729Z,21.30
2023-04-21T11:41:12.440Z,21.30
2023-04-21T11:43:40.418Z,21.30
2023-04-21T11:46:29.930Z,21.30
2023-04-21T11:49:04.239Z,21.30
2023-04-21T11:51:37.202Z,21.30
2023-04-21T11:54:10.859Z,21.30
2023-04-21T11:56:40.870Z,21.30
2023-04-21T11:59:10.845Z,21.40
2023-04-21T12:01:44.664Z,21.30
2023-04-21T12:04:17.774Z,21.30
2023-04-21T12:06:46.472Z,21.40
2023-04-21T12:09:20.813Z,21.30
2023-04-21T12:11:50.603Z,21.40
2023-04-21T12:14:20.103Z,21.40
2023-04-21T12:16:50.676Z,21.40
2023-04-21T12:19:26.410Z,21.30
2023-04-21T12:21:56.127Z,21.40
2023-04-21T12:24:25.982Z,21.40
2023-04-21T12:26:54.767Z,21.40
2023-04-21T12:29:22.589Z,21.40
2023-04-21T12:31:50.581Z,21.40
2023-04-21T12:34:18.429Z,21.40
2023-04-21T12:36:46.328Z,21.40
2023-04-21T12:39:14.378Z,21.40
2023-04-21T12:41:43.754Z,21.40
2023-04-21T12:44:11.702Z,21.40
2023-04-21T12:46:39.623Z,21.40
2023-04-21T12:49:08.982Z,21.40
2023-04-21T12:51:36.867Z,21.40
2023-04-21T12:54:06.220Z,21.40
2023-04-21T12:56:34.199Z,21.40
2023-04-21T12:59:03.458Z,21.40
2023-04-21T13:01:31.479Z,21.40
2023-04-21T13:04:00.481Z,21.40
2023-04-21T13:06:29.043Z,21.40
2023-04-21T13:08:56.976Z,21.40
2023-04-21T13:11:24.877Z,21.40
2023-04-21T13:13:52.964Z,21.50
2023-04-21T13:16:22.290Z,21.40
2023-04-21T13:18:50.222Z,21.50
2023-04-21T13:21:18.217Z,21.40
2023-04-21T13:23:46.219Z,21.50
2023-04-21T13:26:14.257Z,21.50
2023-04-21T13:28:42.443Z,21.50
2023-04-21T13:31:10.551Z,21.50
2023-04-21T13:33:39.784Z,21.50
2023-04-21T13:36:11.870Z,21.50
2023-04-21T13:38:41.265Z,21.50
2023-04-21T13:41:09.703Z,21.50
2023-04-21T13:43:37.661Z,21.50
2023-04-21T13:46:05.743Z,21.50
2023-04-21T13:48:33.590Z,21.50
2023-04-21T13:51:02.806Z,21.50
2023-04-21T13:53:31.064Z,21.50
2023-04-21T13:55:59.481Z,21.50
2023-04-21T13:58:27.813Z,21.50
2023-04-21T14:00:55.690Z,21.50
2023-04-21T14:03:23.730Z,21.50
2023-04-21T14:05:52.008Z,21.60
2023-04-21T14:08:22.013Z,21.60
2023-04-21T14:10:49.973Z,21.60
2023-04-21T14:15:51.758Z,21.60
2023-04-21T14:18:19.708Z,21.60
2023-04-21T14:20:47.701Z,21.60
2023-04-21T14:23:15.598Z,21.60
2023-04-21T14:25:44.975Z,21.60
2023-04-21T14:28:12.851Z,21.60
2023-04-21T14:30:42.825Z,21.60
2023-04-21T14:33:10.907Z,21.60
2023-04-21T14:35:38.944Z,21.60
2023-04-21T14:38:06.910Z,21.60
2023-04-21T14:40:34.871Z,21.60
2023-04-21T14:43:04.100Z,21.60
2023-04-21T14:45:31.997Z,21.70
2023-04-21T14:48:00.134Z,21.70
2023-04-21T14:50:28.121Z,21.70
2023-04-21T14:52:55.963Z,21.70
2023-04-21T14:55:24.488Z,21.70
2023-04-21T14:57:53.046Z,21.70
2023-04-21T15:00:23.547Z,21.70
2023-04-21T15:02:51.598Z,21.70
2023-04-21T15:05:19.974Z,21.70
2023-04-21T15:07:47.833Z,21.70
2023-04-21T15:10:15.887Z,21.70
2023-04-21T15:12:45.115Z,21.70
2023-04-21T15:15:13.309Z,21.70
2023-04-21T15:17:42.584Z,21.70
2023-04-21T15:20:11.764Z,21.70
2023-04-21T15:22:39.840Z,21.70
2023-04-21T15:25:08.321Z,21.70
2023-04-21T15:27:36.710Z,21.70
2023-04-21T15:30:05.288Z,21.70
2023-04-21T15:32:33.161Z,21.70
2023-04-21T15:35:02.522Z,21.70
2023-04-21T15:37:30.428Z,21.70
2023-04-21T15:39:58.314Z,21.70
2023-04-21T15:42:26.433Z,21.70
2023-04-21T15:44:55.636Z,21.70
2023-04-21T15:47:23.943Z,21.80
2023-04-21T15:49:51.948Z,21.80
2023-04-21T15:52:21.280Z,21.80
2023-04-21T15:54:50.559Z,21.80
2023-04-21T15:57:18.498Z,21.80
2023-04-21T15:59:46.418Z,21.80
2023-04-21T16:02:14.567Z,21.80
2023-04-21T16:04:43.418Z,21.80
2023-04-21T16:07:12.126Z,21.80
2023-04-21T16:09:41.763Z,21.80
2023-04-21T16:12:10.508Z,21.80
2023-04-21T16:14:51.255Z,21.80
2023-04-21T16:17:26.624Z,21.80
2023-04-21T16:19:54.793Z,21.80
2023-04-21T16:22:22.811Z,21.90
2023-04-21T16:24:52.934Z,21.90
2023-04-21T16:27:21.161Z,21.90
2023-04-21T16:29:50.214Z,21.90
2023-04-21T16:32:18.296Z,21.90
2023-04-21T16:34:46.360Z,21.90
2023-04-21T16:37:14.375Z,21.90
2023-04-21T16:39:42.311Z,21.90
2023-04-21T16:42:11.527Z,21.90
2023-04-21T16:44:39.609Z,21.90
2023-04-21T16:47:08.147Z,21.90
2023-04-21T16:49:36.189Z,21.90
2023-04-21T16:52:04.131Z,21.90
2023-04-21T16:54:31.978Z,21.80
2023-04-21T16:56:59.910Z,21.80
2023-04-21T16:59:30.755Z,21.80
2023-04-21T17:01:58.798Z,21.80
2023-04-21T17:04:26.751Z,21.80
2023-04-21T17:06:55.030Z,21.80
2023-04-21T17:09:23.105Z,21.80
2023-04-21T17:11:50.961Z,21.80
2023-04-21T17:14:18.813Z,21.80
2023-04-21T17:16:48.060Z,21.70
2023-04-21T17:19:15.922Z,21.80
2023-04-21T17:21:43.765Z,21.70
2023-04-21T17:24:11.705Z,21.70
2023-04-21T17:26:39.766Z,21.70
2023-04-21T17:29:08.719Z,21.70
2023-04-21T17:31:36.694Z,21.60
2023-04-21T17:34:06.150Z,21.60
2023-04-21T17:36:34.116Z,21.60
2023-04-21T17:39:02.334Z,21.60
2023-04-21T17:41:30.257Z,21.50
2023-04-21T17:43:58.090Z,21.50
2023-04-21T17:46:26.418Z,21.50
2023-04-21T17:48:54.985Z,21.50
2023-04-21T17:51:24.680Z,21.50
2023-04-21T17:53:53.126Z,21.50
2023-04-21T17:56:21.189Z,21.40
2023-04-21T17:58:49.125Z,21.40
2023-04-21T18:01:17.939Z,21.40
2023-04-21T18:03:46.883Z,21.40
2023-04-21T18:06:16.017Z,21.30
2023-04-21T18:08:45.396Z,21.30
2023-04-21T18:11:13.262Z,21.30
2023-04-21T18:13:41.355Z,21.30
2023-04-21T18:16:09.281Z,21.30
2023-04-21T18:18:37.550Z,21.20
2023-04-21T18:21:05.767Z,21.20
2023-04-21T18:23:33.727Z,21.20
2023-04-21T18:26:03.102Z,21.10
2023-04-21T18:28:31.901Z,21.10
2023-04-21T18:31:00.613Z,21.10
2023-04-21T18:33:28.708Z,21.10
2023-04-21T18:35:56.717Z,21.00
2023-04-21T18:38:24.564Z,21.00
2023-04-21T18:40:52.572Z,21.00
2023-04-21T18:43:22.159Z,21.00
2023-04-21T18:45:49.971Z,21.00
2023-04-21T18:48:17.892Z,21.00
2023-04-21T18:50:46.781Z,20.90
2023-04-21T18:53:14.688Z,20.90
2023-04-21T18:55:42.568Z,20.90
2023-04-21T18:58:10.794Z,20.80
2023-04-21T19:00:40.212Z,20.80
2023-04-21T19:03:09.471Z,20.80
2023-04-21T19:05:40.332Z,20.80
2023-04-21T19:08:10.081Z,20.80
2023-04-21T19:10:38.667Z,20.70
2023-04-21T19:13:06.795Z,20.70
2023-04-21T19:15:35.096Z,20.70
2023-04-21T19:18:04.637Z,20.60
2023-04-21T19:20:32.828Z,20.70
2023-04-21T19:23:01.175Z,20.60
2023-04-21T19:25:29.313Z,20.60
2023-04-21T19:27:57.515Z,20.60
2023-04-21T19:30:25.587Z,20.60
2023-04-21T19:32:53.567Z,20.50
2023-04-21T19:35:23.128Z,20.50
2023-04-21T19:37:51.795Z,20.50
2023-04-21T19:40:20.492Z,20.50
2023-04-21T19:42:48.427Z,20.40
2023-04-21T19:45:16.593Z,20.40
2023-04-21T19:47:45.099Z,20.40
2023-04-21T19:50:13.793Z,20.40
2023-04-21T19:52:43.126Z,20.40
2023-04-21T19:55:11.423Z,20.30
2023-04-21T19:57:39.506Z,20.30
2023-04-21T20:00:11.314Z,20.30
2023-04-21T20:02:42.383Z,20.20
2023-04-21T20:05:11.397Z,20.20
2023-04-21T20:07:39.634Z,20.30
2023-04-21T20:10:09.954Z,20.20
2023-04-21T20:12:38.112Z,20.20
2023-04-21T20:15:07.677Z,20.20
2023-04-21T20:17:36.815Z,20.20
2023-04-21T20:20:06.444Z,20.10
2023-04-21T20:22:34.361Z,20.10
2023-04-21T20:25:04.198Z,20.10
2023-04-21T20:27:33.584Z,20.10
2023-04-21T20:30:01.696Z,20.10
2023-04-21T20:32:29.692Z,20.10
2023-04-21T20:34:59.601Z,20.10
2023-04-21T20:37:27.526Z,20.00
2023-04-21T20:39:57.055Z,20.00
2023-04-21T20:42:25.022Z,20.00
2023-04-21T20:44:54.295Z,20.00
2023-04-21T20:47:23.226Z,20.00
2023-04-21T20:49:51.372Z,20.00
2023-04-21T20:52:19.318Z,20.00
2023-04-21T20:54:47.334Z,19.90
2023-04-21T20:57:15.450Z,19.90
2023-04-21T20:59:43.384Z,19.90
2023-04-21T21:02:12.788Z,19.90
2023-04-21T21:04:40.930Z,19.90
2023-04-21T21:07:08.965Z,19.90
2023-04-21T21:09:37.104Z,19.90
2023-04-21T21:12:05.785Z,19.90
2023-04-21T21:14:33.790Z,19.80
2023-04-21T21:17:02.881Z,19.80
2023-04-21T21:19:32.483Z,19.80
2023-04-21T21:22:00.404Z,19.80
2023-04-21T21:24:28.840Z,19.80
2023-04-21T21:26:57.239Z,19.80
2023-04-21T21:29:25.317Z,19.80
2023-04-21T21:31:53.290Z,19.70
2023-04-21T21:34:21.209Z,19.70
2023-04-21T21:36:50.584Z,19.70
2023-04-21T21:39:18.509Z,19.70
2023-04-21T21:41:46.376Z,19.70
2023-04-21T21:44:14.394Z,19.60
2023-04-21T21:46:42.630Z,19.60
2023-04-21T21:49:11.503Z,19.60
2023-04-21T21:51:39.361Z,19.60
2023-04-21T21:54:08.903Z,19.60
2023-04-21T21:56:36.940Z,19.50
2023-04-21T21:59:06.265Z,19.50
2023-04-21T22:01:34.256Z,19.50
2023-04-21T22:04:02.371Z,19.50
2023-04-21T22:06:30.744Z,19.50
2023-04-21T22:08:59.130Z,19.40
2023-04-21T22:11:28.486Z,19.40
2023-04-21T22:13:59.071Z,19.40
2023-04-21T22:16:30.909Z,19.30
2023-04-21T22:18:58.827Z,19.30
2023-04-21T22:21:27.743Z,19.30
2023-04-21T22:23:55.654Z,19.30
2023-04-21T22:26:23.563Z,19.20
2023-04-21T22:28:54.664Z,19.20
2023-04-21T22:31:23.289Z,19.20
2023-04-21T22:33:51.209Z,19.20
2023-04-21T22:36:19.314Z,19.10
2023-04-21T22:38:47.255Z,19.10
2023-04-21T22:41:15.735Z,19.10
2023-04-21T22:43:43.676Z,19.00
2023-04-21T22:46:13.557Z,19.00
2023-04-21T22:48:41.546Z,19.00
2023-04-21T22:51:10.249Z,19.00
2023-04-21T22:53:38.148Z,18.90
2023-04-21T22:56:06.934Z,18.90
2023-04-21T22:58:34.869Z,18.80
2023-04-21T23:01:02.889Z,18.80
2023-04-21T23:03:32.509Z,18.80
2023-04-21T23:06:00.609Z,18.80
2023-04-21T23:08:28.513Z,18.80
2023-04-21T23:10:56.534Z,18.70
2023-04-21T23:13:25.001Z,18.70
2023-04-21T23:15:52.958Z,18.70
2023-04-21T23:18:20.865Z,18.60
2023-04-21T23:20:50.185Z,18.60
2023-04-21T23:23:18.109Z,18.60
2023-04-21T23:25:46.327Z,18.60
2023-04-21T23:28:14.219Z,18.50
2023-04-21T23:30:42.204Z,18.50
2023-04-21T23:33:10.377Z,18.40
2023-04-21T23:35:38.383Z,18.40
2023-04-21T23:38:07.582Z,18.40
2023-04-21T23:40:35.506Z,18.40
2023-04-21T23:43:03.580Z,18.30
2023-04-21T23:45:31.548Z,18.30
2023-04-21T23:47:59.496Z,18.30
2023-04-21T23:50:27.401Z,18.30
2023-04-21T23:52:55.918Z,18.20
2023-04-21T23:55:25.273Z,18.20
2023-04-21T23:57:53.167Z,18.20
